createdAt,value
2023-05-19T00:01:52.711Z,23.38
2023-05-19T00:04:55.879Z,25.97
2023-05-19T00:08:01.052Z,24.33
2023-05-19T00:11:04.098Z,21.70
2023-05-19T00:14:09.813Z,20.75
2023-05-19T00:17:12.860Z,23.80
2023-05-19T00:20:15.951Z,20.93
2023-05-19T00:23:18.701Z,23.38
2023-05-19T00:26:25.004Z,25.42
2023-05-19T00:29:34.979Z,24.73
2023-05-19T00:32:37.816Z,22.33
2023-05-19T00:35:41.071Z,25.87
2023-05-19T00:38:43.834Z,24.02
2023-05-19T00:41:46.589Z,31.25
2023-05-19T00:44:49.306Z,32.92
2023-05-19T00:47:52.365Z,33.20
2023-05-19T00:51:04.635Z,34.37
2023-05-19T00:54:08.375Z,31.42
2023-05-19T00:57:12.062Z,27.88
2023-05-19T01:00:15.268Z,29.13
2023-05-19T01:03:20.876Z,28.80
2023-05-19T01:06:23.909Z,29.07
2023-05-19T01:09:27.056Z,26.02
2023-05-19T01:12:30.253Z,28.27
2023-05-19T01:16:07.162Z,26.75
2023-05-19T01:19:40.264Z,28.98
2023-05-19T01:23:01.119Z,32.47
2023-05-19T01:26:09.757Z,24.27
2023-05-19T01:29:41.318Z,23.65
2023-05-19T01:32:46.513Z,29.00
2023-05-19T01:35:50.561Z,28.70
2023-05-19T01:38:57.813Z,28.83
2023-05-19T01:42:01.932Z,24.55
2023-05-19T01:45:06.837Z,23.35
2023-05-19T01:48:11.289Z,23.42
2023-05-19T01:51:15.207Z,20.60
2023-05-19T01:54:18.855Z,25.37
2023-05-19T01:57:48.378Z,25.80
2023-05-19T02:01:07.283Z,26.42
2023-05-19T02:04:22.911Z,26.73
2023-05-19T02:07:35.474Z,29.08
2023-05-19T02:10:43.815Z,27.13
2023-05-19T02:13:51.467Z,22.65
2023-05-19T02:16:56.132Z,28.33
2023-05-19T02:19:59.301Z,28.17
2023-05-19T02:23:02.252Z,23.42
2023-05-19T02:26:05.236Z,24.53
2023-05-19T02:29:09.097Z,30.92
2023-05-19T02:32:12.084Z,29.08
2023-05-19T02:35:16.241Z,29.05
2023-05-19T02:38:19.340Z,24.77
2023-05-19T02:41:22.377Z,30.13
2023-05-19T02:44:25.157Z,27.63
2023-05-19T02:47:28.010Z,31.70
2023-05-19T02:50:31.088Z,28.13
2023-05-19T02:53:34.077Z,29.33
2023-05-19T02:56:36.894Z,31.13
2023-05-19T02:59:39.774Z,29.80
2023-05-19T03:02:44.200Z,27.27
2023-05-19T03:05:47.862Z,28.90
2023-05-19T03:08:51.133Z,27.45
2023-05-19T03:11:53.886Z,25.60
2023-05-19T03:14:56.605Z,25.17
2023-05-19T03:17:59.379Z,29.25
2023-05-19T03:21:02.173Z,29.40
2023-05-19T03:24:05.201Z,28.67
2023-05-19T03:27:09.051Z,32.00
2023-05-19T03:30:13.210Z,27.60
2023-05-19T03:33:30.028Z,29.17
2023-05-19T03:36:33.227Z,28.95
2023-05-19T03:39:37.091Z,26.65
2023-05-19T03:42:39.984Z,26.43
2023-05-19T03:45:43.035Z,29.70
2023-05-19T03:49:04.549Z,24.75
2023-05-19T03:52:26.204Z,30.55
2023-05-19T03:55:34.667Z,26.83
2023-05-19T03:58:39.486Z,36.03
2023-05-19T04:01:42.306Z,26.10
2023-05-19T04:04:45.089Z,25.23
2023-05-19T04:07:47.958Z,23.35
2023-05-19T04:10:50.746Z,28.05
2023-05-19T04:13:53.482Z,26.27
2023-05-19T04:16:56.392Z,24.45
2023-05-19T04:19:59.136Z,24.88
2023-05-19T04:23:01.867Z,31.13
2023-05-19T04:26:06.907Z,32.72
2023-05-19T04:29:10.947Z,39.40
2023-05-19T04:32:17.809Z,36.30
2023-05-19T04:35:21.398Z,35.55
2023-05-19T04:38:24.906Z,37.35
2023-05-19T04:41:27.832Z,31.27
2023-05-19T04:44:31.531Z,30.00
2023-05-19T04:47:37.090Z,28.10
2023-05-19T04:50:42.207Z,28.88
2023-05-19T04:53:45.708Z,26.63
2023-05-19T04:56:49.937Z,21.42
2023-05-19T04:59:53.662Z,25.67
2023-05-19T05:02:57.793Z,20.02
2023-05-19T05:06:02.470Z,21.52
2023-05-19T05:09:05.303Z,20.02
2023-05-19T05:12:09.235Z,22.80
2023-05-19T05:15:14.565Z,19.50
2023-05-19T05:18:17.725Z,21.58
2023-05-19T05:21:20.930Z,23.13
2023-05-19T05:24:24.148Z,22.55
2023-05-19T05:27:31.850Z,18.48
2023-05-19T05:30:35.519Z,18.50
2023-05-19T05:33:39.650Z,20.35
2023-05-19T05:36:42.603Z,19.23
2023-05-19T05:39:45.879Z,23.90
2023-05-19T05:42:49.642Z,17.85
2023-05-19T05:45:54.949Z,15.57
2023-05-19T05:48:58.101Z,16.15
2023-05-19T05:52:06.155Z,11.43
2023-05-19T05:55:18.629Z,9.73
2023-05-19T05:58:22.380Z,10.93
2023-05-19T06:01:25.292Z,12.03
2023-05-19T06:04:29.651Z,12.80
2023-05-19T06:07:32.436Z,12.20
2023-05-19T06:10:37.037Z,11.20
2023-05-19T06:13:43.068Z,11.57
2023-05-19T06:16:51.987Z,11.20
2023-05-19T06:19:54.837Z,11.32
2023-05-19T06:22:57.782Z,14.27
2023-05-19T06:26:02.912Z,11.40
2023-05-19T06:29:06.388Z,11.70
2023-05-19T06:32:09.227Z,11.80
2023-05-19T06:35:12.278Z,10.88
2023-05-19T06:38:15.055Z,12.43
2023-05-19T06:41:18.081Z,11.85
2023-05-19T06:44:23.295Z,10.45
2023-05-19T06:47:26.360Z,9.27
2023-05-19T06:50:29.218Z,8.55
2023-05-19T06:53:34.038Z,7.63
2023-05-19T06:56:39.288Z,8.50
2023-05-19T06:59:43.779Z,6.53
2023-05-19T07:02:47.489Z,8.60
2023-05-19T07:05:50.812Z,8.68
2023-05-19T07:08:54.091Z,6.10
2023-05-19T07:11:57.560Z,9.77
2023-05-19T07:15:00.752Z,7.35
2023-05-19T07:18:04.932Z,7.70
2023-05-19T07:21:07.761Z,10.70
2023-05-19T07:24:11.030Z,7.90
2023-05-19T07:27:13.865Z,8.95
2023-05-19T07:30:16.675Z,9.90
2023-05-19T07:33:19.515Z,8.00
2023-05-19T07:36:22.350Z,7.22
2023-05-19T07:39:28.019Z,7.07
2023-05-19T07:42:30.866Z,5.80
2023-05-19T07:45:34.911Z,6.18
2023-05-19T07:48:37.817Z,5.83
2023-05-19T07:51:42.074Z,6.38
2023-05-19T07:54:46.032Z,8.45
2023-05-19T07:57:50.637Z,5.25
2023-05-19T08:00:53.777Z,5.50
2023-05-19T08:03:56.994Z,5.40
2023-05-19T08:06:59.966Z,3.88
2023-05-19T08:10:03.738Z,4.50
2023-05-19T08:13:06.580Z,3.47
2023-05-19T08:16:09.320Z,5.30
2023-05-19T08:19:12.221Z,4.53
2023-05-19T08:22:14.998Z,3.90
2023-05-19T08:25:19.900Z,4.50
2023-05-19T08:28:22.833Z,4.50
2023-05-19T08:31:25.591Z,4.35
2023-05-19T08:34:28.628Z,4.30
2023-05-19T08:37:33.362Z,4.70
2023-05-19T08:40:41.298Z,4.47
2023-05-19T08:43:44.138Z,5.00
2023-05-19T08:46:50.086Z,4.72
2023-05-19T08:49:53.504Z,6.90
2023-05-19T08:53:04.910Z,5.85
2023-05-19T08:56:25.104Z,5.35
2023-05-19T08:59:28.259Z,5.10
2023-05-19T09:02:31.538Z,5.45
2023-05-19T09:05:34.644Z,6.27
2023-05-19T09:08:37.763Z,4.35
2023-05-19T09:11:40.656Z,5.20
2023-05-19T09:14:44.165Z,6.90
2023-05-19T09:17:50.694Z,5.20
2023-05-19T09:21:03.070Z,5.60
2023-05-19T09:24:08.112Z,5.10
2023-05-19T09:27:16.434Z,5.05
2023-05-19T09:30:19.687Z,6.10
2023-05-19T09:33:22.708Z,5.68
2023-05-19T09:36:25.889Z,4.97
2023-05-19T09:39:29.668Z,5.22
2023-05-19T09:42:38.028Z,5.63
2023-05-19T09:45:40.896Z,4.00
2023-05-19T09:48:44.045Z,4.07
2023-05-19T09:51:49.155Z,7.57
2023-05-19T09:54:54.026Z,4.18
2023-05-19T09:57:56.823Z,4.53
2023-05-19T10:01:00.660Z,3.97
2023-05-19T10:04:06.001Z,4.60
2023-05-19T10:07:11.588Z,4.43
2023-05-19T10:10:15.848Z,6.13
2023-05-19T10:13:19.732Z,4.65
2023-05-19T10:16:24.748Z,3.83
2023-05-19T10:19:29.216Z,4.00
2023-05-19T10:22:33.829Z,5.67
2023-05-19T10:25:37.787Z,5.22
2023-05-19T10:28:43.537Z,5.63
2023-05-19T10:31:48.209Z,4.32
2023-05-19T10:35:14.573Z,4.82
2023-05-19T10:38:26.320Z,4.53
2023-05-19T10:41:47.540Z,4.00
2023-05-19T10:45:17.985Z,3.83
2023-05-19T10:48:22.239Z,3.95
2023-05-19T10:51:32.308Z,4.90
2023-05-19T10:54:47.403Z,5.40
2023-05-19T10:57:58.895Z,4.55
2023-05-19T11:01:01.901Z,5.45
2023-05-19T11:04:12.350Z,3.63
2023-05-19T11:07:20.015Z,3.70
2023-05-19T11:10:25.882Z,4.30
2023-05-19T11:13:28.878Z,4.03
2023-05-19T11:16:35.003Z,4.13
2023-05-19T11:19:37.762Z,3.80
2023-05-19T11:22:40.593Z,4.20
2023-05-19T11:25:47.516Z,3.77
2023-05-19T11:28:52.180Z,9.02
2023-05-19T11:31:55.795Z,4.10
2023-05-19T11:34:58.606Z,4.30
2023-05-19T11:38:02.186Z,5.10
2023-05-19T11:41:05.248Z,3.53
2023-05-19T11:44:12.262Z,4.45
2023-05-19T11:47:15.966Z,5.75
2023-05-19T11:50:20.359Z,4.25
2023-05-19T11:53:23.416Z,3.83
2023-05-19T11:56:26.258Z,4.47
2023-05-19T11:59:37.839Z,3.92
2023-05-19T12:02:40.805Z,4.22
2023-05-19T12:05:47.421Z,4.00
2023-05-19T12:08:55.468Z,4.40
2023-05-19T12:11:58.591Z,3.77
2023-05-19T12:15:03.816Z,3.40
2023-05-19T12:18:06.821Z,5.10
2023-05-19T12:21:10.036Z,5.22
2023-05-19T12:24:13.063Z,4.28
2023-05-19T12:27:26.545Z,3.87
2023-05-19T12:30:30.449Z,4.72
2023-05-19T12:33:35.733Z,4.88
2023-05-19T12:36:38.899Z,5.82
2023-05-19T12:39:43.392Z,4.13
2023-05-19T12:42:46.585Z,4.33
2023-05-19T12:45:49.817Z,4.55
2023-05-19T12:48:52.638Z,5.55
2023-05-19T12:51:55.412Z,4.18
2023-05-19T12:55:08.403Z,4.88
2023-05-19T12:58:12.433Z,6.83
2023-05-19T13:01:18.938Z,4.10
2023-05-19T13:04:21.860Z,5.47
2023-05-19T13:07:24.805Z,4.28
2023-05-19T13:10:28.557Z,4.30
2023-05-19T13:13:31.423Z,5.23
2023-05-19T13:16:34.201Z,4.55
2023-05-19T13:19:37.050Z,4.30
2023-05-19T13:22:39.878Z,4.18
2023-05-19T13:25:43.581Z,5.38
2023-05-19T13:28:46.312Z,5.00
2023-05-19T13:31:49.088Z,4.47
2023-05-19T13:34:51.930Z,4.63
2023-05-19T13:37:54.710Z,6.25
2023-05-19T13:40:57.488Z,4.47
2023-05-19T13:44:01.271Z,4.93
2023-05-19T13:47:04.173Z,5.22
2023-05-19T13:50:07.342Z,5.18
2023-05-19T13:53:11.587Z,4.55
2023-05-19T13:56:14.426Z,6.05
2023-05-19T13:59:21.671Z,4.57
2023-05-19T14:02:24.542Z,6.05
2023-05-19T14:05:29.050Z,5.53
2023-05-19T14:08:32.463Z,4.75
2023-05-19T14:11:35.442Z,4.82
2023-05-19T14:14:38.715Z,4.23
2023-05-19T14:17:41.707Z,5.82
2023-05-19T14:20:44.617Z,5.88
2023-05-19T14:23:47.419Z,5.50
2023-05-19T14:26:50.728Z,5.07
2023-05-19T14:29:53.515Z,5.50
2023-05-19T14:32:56.662Z,6.30
2023-05-19T14:36:00.480Z,5.13
2023-05-19T14:39:03.384Z,5.75
2023-05-19T14:42:06.144Z,4.70
2023-05-19T14:45:09.467Z,5.07
2023-05-19T14:48:12.623Z,5.97
2023-05-19T14:51:15.361Z,4.95
2023-05-19T14:54:18.124Z,5.43
2023-05-19T14:57:20.993Z,4.88
2023-05-19T15:00:26.229Z,6.90
2023-05-19T15:03:28.970Z,4.70
2023-05-19T15:06:31.843Z,5.10
2023-05-19T15:09:34.659Z,5.88
2023-05-19T15:12:37.480Z,5.07
2023-05-19T15:15:40.282Z,4.83
2023-05-19T15:18:43.199Z,5.70
2023-05-19T15:21:46.056Z,4.60
2023-05-19T15:24:48.994Z,5.00
2023-05-19T15:27:51.764Z,6.45
2023-05-19T15:30:54.597Z,5.23
2023-05-19T15:33:57.390Z,4.80
2023-05-19T15:37:00.139Z,4.88
2023-05-19T15:40:03.750Z,4.72
2023-05-19T15:43:06.480Z,5.63
2023-05-19T15:46:09.284Z,5.13
2023-05-19T15:49:12.659Z,4.57
2023-05-19T15:52:15.706Z,4.80
2023-05-19T15:55:18.680Z,5.28
2023-05-19T15:58:21.498Z,5.65
2023-05-19T16:01:24.256Z,4.40
2023-05-19T16:04:27.075Z,4.68
2023-05-19T16:07:29.820Z,6.43
2023-05-19T16:10:32.967Z,5.85
2023-05-19T16:13:35.950Z,5.10
2023-05-19T16:16:38.863Z,4.83
2023-05-19T16:19:41.758Z,6.57
2023-05-19T16:22:44.529Z,5.63
2023-05-19T16:25:48.112Z,6.18
2023-05-19T16:28:50.945Z,5.20
2023-05-19T16:31:53.803Z,7.80
2023-05-19T16:34:56.642Z,4.68
2023-05-19T16:37:59.376Z,4.93
2023-05-19T16:41:03.815Z,4.55
2023-05-19T16:44:06.586Z,4.70
2023-05-19T16:47:09.327Z,4.27
2023-05-19T16:50:13.124Z,4.28
2023-05-19T16:53:15.949Z,6.60
2023-05-19T16:56:19.378Z,4.53
2023-05-19T16:59:22.188Z,5.18
2023-05-19T17:02:25.106Z,5.63
2023-05-19T17:05:28.002Z,4.88
2023-05-19T17:08:30.829Z,8.23
2023-05-19T17:11:33.674Z,4.75
2023-05-19T17:14:37.010Z,4.55
2023-05-19T17:17:39.851Z,5.17
2023-05-19T17:20:42.750Z,5.28
2023-05-19T17:23:45.757Z,4.30
2023-05-19T17:26:48.517Z,7.18
2023-05-19T17:29:51.280Z,5.15
2023-05-19T17:32:55.047Z,8.00
2023-05-19T17:35:57.795Z,6.07
2023-05-19T17:39:00.728Z,6.35
2023-05-19T17:42:04.203Z,6.25
2023-05-19T17:45:07.706Z,7.53
2023-05-19T17:48:10.510Z,6.47
2023-05-19T17:51:13.315Z,7.18
2023-05-19T17:54:16.381Z,6.32
2023-05-19T17:57:20.157Z,7.65
2023-05-19T18:00:23.496Z,7.50
2023-05-19T18:03:26.707Z,6.00
2023-05-19T18:06:31.605Z,10.32
2023-05-19T18:09:38.440Z,8.23
2023-05-19T18:12:41.163Z,7.40
2023-05-19T18:15:43.922Z,10.50
2023-05-19T18:18:50.526Z,8.63
2023-05-19T18:21:53.422Z,8.50
2023-05-19T18:24:57.698Z,9.00
2023-05-19T18:28:00.536Z,13.35
2023-05-19T18:31:05.350Z,13.70
2023-05-19T18:34:08.161Z,8.33
2023-05-19T18:37:11.010Z,11.27
2023-05-19T18:40:13.827Z,8.27
2023-05-19T18:43:16.786Z,10.85
2023-05-19T18:46:20.723Z,9.98
2023-05-19T18:49:25.164Z,9.83
2023-05-19T18:52:28.774Z,9.50
2023-05-19T18:55:31.545Z,8.55
2023-05-19T18:58:34.383Z,11.13
2023-05-19T19:01:37.331Z,11.15
2023-05-19T19:04:41.330Z,9.63
2023-05-19T19:07:44.886Z,11.00
2023-05-19T19:10:50.556Z,11.63
2023-05-19T19:13:55.601Z,12.65
2023-05-19T19:16:58.419Z,10.75
2023-05-19T19:20:01.300Z,11.33
2023-05-19T19:23:06.726Z,13.93
2023-05-19T19:26:09.859Z,13.20
2023-05-19T19:29:12.602Z,11.60
2023-05-19T19:32:15.495Z,13.45
2023-05-19T19:35:18.297Z,13.73
2023-05-19T19:38:21.139Z,14.35
2023-05-19T19:41:25.161Z,12.85
2023-05-19T19:44:27.944Z,10.82
2023-05-19T19:47:30.895Z,10.15
2023-05-19T19:50:34.837Z,11.63
2023-05-19T19:53:38.070Z,12.82
2023-05-19T19:56:40.899Z,13.00
2023-05-19T19:59:43.838Z,13.75
2023-05-19T20:05:56.717Z,13.63
2023-05-19T20:09:00.025Z,11.15
2023-05-19T20:12:02.762Z,14.63
2023-05-19T20:15:06.393Z,11.65
2023-05-19T20:18:09.429Z,11.18
2023-05-19T20:21:12.224Z,9.53
2023-05-19T20:24:14.993Z,10.88
2023-05-19T20:27:17.750Z,10.95
2023-05-19T20:30:20.866Z,9.63
2023-05-19T20:33:23.601Z,10.95
2023-05-19T20:36:26.788Z,10.80
2023-05-19T20:39:31.120Z,11.13
2023-05-19T20:42:34.171Z,10.93
2023-05-19T20:45:37.154Z,10.15
2023-05-19T20:48:40.170Z,11.85
2023-05-19T20:51:43.056Z,9.80
2023-05-19T20:54:46.571Z,8.88
2023-05-19T20:57:49.319Z,8.77
2023-05-19T21:00:57.782Z,10.32
2023-05-19T21:04:01.265Z,12.27
2023-05-19T21:07:04.567Z,11.50
2023-05-19T21:10:07.998Z,9.30
2023-05-19T21:13:10.826Z,10.70
2023-05-19T21:16:13.570Z,14.88
2023-05-19T21:19:16.603Z,11.43
2023-05-19T21:22:19.406Z,11.93
2023-05-19T21:25:22.476Z,9.90
2023-05-19T21:28:25.250Z,14.60
2023-05-19T21:31:28.007Z,12.35
2023-05-19T21:34:30.864Z,12.15
2023-05-19T21:37:35.745Z,10.33
2023-05-19T21:40:38.467Z,11.43
2023-05-19T21:43:42.180Z,11.02
2023-05-19T21:46:45.085Z,10.38
2023-05-19T21:49:47.902Z,12.00
2023-05-19T21:52:51.061Z,11.30
2023-05-19T21:55:53.957Z,11.52
2023-05-19T21:58:56.749Z,14.50
2023-05-19T22:01:59.539Z,11.68
2023-05-19T22:05:02.332Z,12.05
2023-05-19T22:08:05.319Z,12.23
2023-05-19T22:11:09.178Z,12.00
2023-05-19T22:14:11.953Z,13.63
2023-05-19T22:17:14.719Z,13.93
2023-05-19T22:20:17.702Z,13.40
2023-05-19T22:23:21.025Z,14.07
2023-05-19T22:26:23.748Z,17.10
2023-05-19T22:29:26.536Z,14.02
2023-05-19T22:32:30.558Z,14.75
2023-05-19T22:35:33.390Z,17.45
2023-05-19T22:38:36.496Z,12.40
2023-05-19T22:41:39.549Z,15.18
2023-05-19T22:44:43.570Z,17.08
2023-05-19T22:47:48.143Z,11.70
2023-05-19T22:50:51.108Z,11.75
2023-05-19T22:53:54.299Z,13.80
2023-05-19T22:56:57.132Z,13.32
2023-05-19T22:59:59.951Z,13.02
2023-05-19T23:03:02.718Z,10.98
2023-05-19T23:06:05.460Z,13.60
2023-05-19T23:09:08.274Z,12.00
2023-05-19T23:12:11.035Z,11.95
2023-05-19T23:15:13.776Z,12.70
2023-05-19T23:18:16.510Z,13.70
2023-05-19T23:21:19.510Z,12.48
2023-05-19T23:24:22.332Z,13.73
2023-05-19T23:27:25.100Z,16.80
2023-05-19T23:30:30.453Z,13.10
2023-05-19T23:33:33.270Z,13.32
2023-05-19T23:36:36.732Z,14.63
2023-05-19T23:39:39.641Z,15.47
2023-05-19T23:42:44.521Z,11.98
2023-05-19T23:45:47.293Z,14.55
2023-05-19T23:48:50.105Z,14.60
2023-05-19T23:51:52.929Z,12.25
2023-05-19T23:54:55.745Z,13.70
2023-05-19T23:57:58.569Z,12.98
